createdAt,value
2022-08-01T00:00:20.215Z,2.70
2022-08-01T00:02:46.520Z,2.72
2022-08-01T00:05:12.851Z,2.70
2022-08-01T00:07:39.068Z,2.60
2022-08-01T00:10:05.222Z,2.65
2022-08-01T00:12:31.375Z,2.92
2022-08-01T00:14:57.546Z,2.80
2022-08-01T00:17:23.891Z,2.92
2022-08-01T00:19:50.048Z,2.80
2022-08-01T00:22:16.236Z,2.63
2022-08-01T00:24:42.409Z,2.70
2022-08-01T00:27:08.609Z,2.70
2022-08-01T00:30:10.388Z,2.97
2022-08-01T00:32:20.911Z,2.38
2022-08-01T00:34:47.085Z,2.50
2022-08-01T00:37:16.163Z,2.70
2022-08-01T00:39:42.495Z,2.88
2022-08-01T00:42:08.697Z,2.53
2022-08-01T00:44:34.894Z,2.58
2022-08-01T00:47:01.072Z,2.35
2022-08-01T00:49:27.322Z,2.40
2022-08-01T00:51:53.525Z,2.20
2022-08-01T00:54:19.714Z,2.50
2022-08-01T00:56:45.975Z,2.42
2022-08-01T00:59:12.172Z,2.30
2022-08-01T01:01:40.560Z,2.33
2022-08-01T01:04:12.833Z,2.35
2022-08-01T01:06:39.001Z,2.17
2022-08-01T01:09:05.162Z,2.40
2022-08-01T01:11:31.356Z,2.28
2022-08-01T01:13:57.540Z,2.00
2022-08-01T01:16:23.765Z,2.42
2022-08-01T01:18:49.911Z,2.10
2022-08-01T01:21:16.107Z,2.40
2022-08-01T01:23:42.302Z,2.38
2022-08-01T01:26:08.605Z,2.13
2022-08-01T01:28:34.777Z,2.10
2022-08-01T01:31:00.965Z,2.15
2022-08-01T01:33:27.157Z,3.00
2022-08-01T01:35:53.392Z,2.90
2022-08-01T01:38:19.552Z,3.30
2022-08-01T01:40:45.715Z,3.10
2022-08-01T01:43:11.921Z,3.25
2022-08-01T01:48:18.170Z,2.97
2022-08-01T01:50:44.372Z,3.20
2022-08-01T01:53:15.238Z,3.15
2022-08-01T01:55:49.743Z,3.20
2022-08-01T01:58:18.198Z,3.00
2022-08-01T02:00:44.471Z,3.25
2022-08-01T02:03:11.848Z,3.70
2022-08-01T02:05:38.042Z,3.30
2022-08-01T02:08:04.278Z,3.00
2022-08-01T02:10:30.469Z,2.85
2022-08-01T02:12:56.692Z,3.50
2022-08-01T02:15:22.916Z,3.53
2022-08-01T02:17:49.080Z,2.58
2022-08-01T02:20:15.318Z,2.50
2022-08-01T02:22:41.543Z,2.40
2022-08-01T02:25:07.729Z,2.38
2022-08-01T02:27:33.920Z,2.58
2022-08-01T02:30:00.158Z,2.45
2022-08-01T02:32:26.356Z,2.35
2022-08-01T02:34:52.608Z,2.47
2022-08-01T02:37:18.766Z,2.67
2022-08-01T02:39:45.124Z,2.88
2022-08-01T02:42:11.305Z,2.65
2022-08-01T02:44:37.490Z,2.55
2022-08-01T02:47:03.680Z,2.72
2022-08-01T02:49:29.964Z,2.80
2022-08-01T02:51:56.217Z,2.28
2022-08-01T02:54:22.406Z,2.78
2022-08-01T02:56:48.643Z,2.58
2022-08-01T02:59:14.849Z,2.38
2022-08-01T03:01:42.167Z,2.60
2022-08-01T03:04:09.790Z,2.47
2022-08-01T03:06:35.988Z,2.53
2022-08-01T03:09:02.197Z,2.65
2022-08-01T03:11:28.389Z,2.58
2022-08-01T03:13:54.637Z,2.30
2022-08-01T03:16:20.874Z,2.85
2022-08-01T03:18:47.120Z,2.50
2022-08-01T03:21:13.324Z,2.42
2022-08-01T03:23:39.588Z,2.38
2022-08-01T03:26:05.789Z,2.30
2022-08-01T03:28:31.974Z,3.47
2022-08-01T03:30:58.164Z,2.13
2022-08-01T03:33:24.354Z,2.70
2022-08-01T03:35:50.548Z,2.60
2022-08-01T03:38:16.849Z,2.17
2022-08-01T03:40:43.061Z,2.85
2022-08-01T03:43:09.304Z,2.67
2022-08-01T03:45:35.504Z,2.05
2022-08-01T03:48:01.717Z,2.67
2022-08-01T03:50:28.062Z,2.72
2022-08-01T03:52:54.419Z,2.70
2022-08-01T03:55:20.613Z,2.70
2022-08-01T03:57:46.874Z,2.65
2022-08-01T04:00:13.203Z,2.90
2022-08-01T04:02:39.400Z,2.58
2022-08-01T04:05:05.588Z,2.50
2022-08-01T04:07:31.888Z,2.50
2022-08-01T04:09:58.116Z,2.75
2022-08-01T04:12:24.339Z,2.83
2022-08-01T04:14:50.598Z,3.00
2022-08-01T04:17:16.806Z,2.78
2022-08-01T04:19:43.028Z,2.35
2022-08-01T04:22:09.261Z,2.40
2022-08-01T04:24:35.494Z,2.58
2022-08-01T04:27:01.653Z,2.72
2022-08-01T04:29:27.818Z,2.58
2022-08-01T04:31:54.017Z,2.97
2022-08-01T04:34:20.201Z,2.55
2022-08-01T04:36:46.391Z,2.50
2022-08-01T04:39:12.570Z,2.97
2022-08-01T04:41:38.745Z,3.00
2022-08-01T04:44:04.906Z,2.67
2022-08-01T04:46:31.143Z,2.78
2022-08-01T05:05:41.676Z,3.08
2022-08-01T05:08:07.846Z,3.17
2022-08-01T05:10:34.096Z,3.20
2022-08-01T05:13:00.304Z,2.97
2022-08-01T05:15:26.733Z,2.95
2022-08-01T05:17:52.920Z,2.92
2022-08-01T05:20:19.110Z,3.15
2022-08-01T05:22:45.276Z,2.72
2022-08-01T05:25:12.207Z,3.47
2022-08-01T05:27:40.756Z,2.85
2022-08-01T05:30:06.955Z,2.80
2022-08-01T05:32:33.121Z,3.05
2022-08-01T05:34:59.336Z,2.88
2022-08-01T05:37:25.496Z,2.85
2022-08-01T05:39:51.670Z,2.70
2022-08-01T05:42:17.852Z,2.80
2022-08-01T05:44:44.013Z,2.88
2022-08-01T05:47:10.176Z,2.30
2022-08-01T05:49:36.475Z,2.70
2022-08-01T05:52:03.093Z,2.70
2022-08-01T05:54:29.695Z,3.30
2022-08-01T05:56:55.896Z,2.75
2022-08-01T05:59:22.121Z,2.60
2022-08-01T06:01:48.647Z,2.75
2022-08-01T06:04:14.871Z,2.70
2022-08-01T06:06:43.256Z,2.80
2022-08-01T06:09:09.448Z,2.67
2022-08-01T06:11:35.609Z,2.75
2022-08-01T06:14:01.814Z,2.30
2022-08-01T06:16:27.985Z,2.53
2022-08-01T06:18:56.847Z,2.40
2022-08-01T06:21:23.206Z,2.28
2022-08-01T06:23:49.377Z,2.45
2022-08-01T06:26:15.544Z,1.90
2022-08-01T06:28:41.696Z,2.00
2022-08-01T06:31:07.843Z,1.90
2022-08-01T06:33:34.024Z,1.95
2022-08-01T06:36:00.225Z,1.70
2022-08-01T06:38:26.423Z,1.80
2022-08-01T06:40:52.582Z,1.65
2022-08-01T06:43:18.743Z,2.00
2022-08-01T06:45:44.929Z,1.80
2022-08-01T06:48:11.092Z,1.98
2022-08-01T06:50:37.269Z,2.15
2022-08-01T06:53:03.474Z,2.08
2022-08-01T06:55:29.639Z,1.63
2022-08-01T06:57:55.804Z,1.92
2022-08-01T07:00:22.034Z,1.80
2022-08-01T07:02:48.215Z,1.98
2022-08-01T07:05:14.419Z,1.50
2022-08-01T07:07:40.584Z,1.63
2022-08-01T07:10:06.728Z,1.90
2022-08-01T07:12:32.920Z,1.60
2022-08-01T07:14:59.096Z,1.70
2022-08-01T07:17:25.268Z,1.55
2022-08-01T07:19:51.457Z,1.58
2022-08-01T07:22:23.096Z,1.70
2022-08-01T07:24:49.882Z,1.55
2022-08-01T07:29:53.770Z,1.70
2022-08-01T07:32:20.099Z,1.42
2022-08-01T07:34:46.292Z,1.65
2022-08-01T07:37:12.464Z,1.50
2022-08-01T07:39:38.661Z,1.30
2022-08-01T07:42:13.406Z,1.25
2022-08-01T07:44:39.872Z,1.42
2022-08-01T07:47:06.072Z,1.15
2022-08-01T07:49:37.499Z,1.30
2022-08-01T07:52:06.004Z,1.30
2022-08-01T07:54:33.956Z,1.55
2022-08-01T07:57:00.355Z,1.50
2022-08-01T07:59:26.559Z,1.35
2022-08-01T08:01:52.788Z,1.45
2022-08-01T08:04:21.300Z,1.50
2022-08-01T08:06:47.468Z,1.73
2022-08-01T08:09:13.691Z,1.48
2022-08-01T08:11:42.441Z,1.55
2022-08-01T08:14:12.038Z,1.60
2022-08-01T08:16:38.209Z,1.67
2022-08-01T08:19:04.430Z,1.52
2022-08-01T08:21:30.573Z,1.60
2022-08-01T08:23:56.740Z,1.70
2022-08-01T08:26:22.947Z,1.80
2022-08-01T08:28:49.116Z,1.73
2022-08-01T08:31:24.873Z,1.50
2022-08-01T08:33:52.142Z,1.63
2022-08-01T08:36:18.378Z,2.05
2022-08-01T08:38:45.008Z,1.30
2022-08-01T08:41:12.262Z,1.55
2022-08-01T08:43:38.446Z,1.45
2022-08-01T08:46:04.635Z,1.70
2022-08-01T08:48:32.962Z,1.48
2022-08-01T08:50:59.121Z,1.20
2022-08-01T08:53:25.322Z,1.50
2022-08-01T08:56:00.882Z,1.23
2022-08-01T08:58:30.637Z,1.65
2022-08-01T09:00:58.074Z,1.58
2022-08-01T09:03:24.322Z,1.33
2022-08-01T09:05:50.584Z,1.23
2022-08-01T09:08:16.779Z,1.35
2022-08-01T09:10:42.949Z,1.33
2022-08-01T09:13:09.132Z,1.38
2022-08-01T09:15:35.321Z,1.25
2022-08-01T09:18:01.485Z,1.30
2022-08-01T09:20:27.661Z,1.00
2022-08-01T09:22:53.846Z,1.10
2022-08-01T09:25:20.059Z,1.50
2022-08-01T09:27:46.626Z,1.30
2022-08-01T09:30:12.863Z,1.48
2022-08-01T09:32:39.277Z,1.30
2022-08-01T09:35:05.926Z,1.20
2022-08-01T09:37:38.133Z,1.10
2022-08-01T09:40:13.604Z,1.20
2022-08-01T09:42:39.783Z,1.10
2022-08-01T09:45:07.302Z,1.30
2022-08-01T09:47:33.648Z,1.30
2022-08-01T09:49:59.994Z,1.30
2022-08-01T09:52:29.154Z,1.38
2022-08-01T09:54:55.684Z,1.20
2022-08-01T09:57:22.223Z,1.10
2022-08-01T09:59:58.435Z,1.58
2022-08-01T10:02:26.005Z,1.35
2022-08-01T10:04:55.794Z,1.17
2022-08-01T10:07:27.651Z,1.33
2022-08-01T10:10:08.840Z,1.20
2022-08-01T10:12:37.664Z,1.10
2022-08-01T10:15:03.872Z,1.17
2022-08-01T10:17:51.068Z,1.38
2022-08-01T10:20:29.889Z,1.10
2022-08-01T10:22:57.323Z,1.05
2022-08-01T10:25:43.275Z,1.30
2022-08-01T10:28:09.646Z,1.10
2022-08-01T10:30:36.593Z,1.40
2022-08-01T10:33:02.768Z,1.13
2022-08-01T10:35:46.894Z,1.20
2022-08-01T10:38:14.158Z,1.48
2022-08-01T10:40:40.403Z,1.30
2022-08-01T10:43:06.806Z,1.30
2022-08-01T10:45:33.041Z,1.13
2022-08-01T10:47:59.242Z,1.17
2022-08-01T10:50:25.889Z,1.20
2022-08-01T10:52:52.434Z,1.05
2022-08-01T10:55:18.644Z,1.13
2022-08-01T10:57:52.463Z,1.30
2022-08-01T11:00:19.022Z,1.15
2022-08-01T11:02:45.500Z,1.20
2022-08-01T11:05:14.192Z,1.25
2022-08-01T11:07:40.686Z,1.42
2022-08-01T11:10:14.603Z,1.75
2022-08-01T11:12:41.295Z,1.30
2022-08-01T11:15:10.279Z,1.33
2022-08-01T11:17:37.682Z,1.30
2022-08-01T11:20:04.597Z,1.30
2022-08-01T11:22:30.846Z,1.17
2022-08-01T11:24:57.040Z,1.38
2022-08-01T11:27:24.325Z,1.30
2022-08-01T11:29:50.489Z,1.40
2022-08-01T11:32:16.833Z,1.40
2022-08-01T11:34:43.007Z,1.15
2022-08-01T11:37:09.358Z,1.50
2022-08-01T11:39:38.841Z,1.20
2022-08-01T11:42:05.260Z,1.20
2022-08-01T11:44:31.479Z,1.27
2022-08-01T11:46:57.684Z,1.30
2022-08-01T11:49:23.912Z,1.70
2022-08-01T11:51:50.891Z,1.35
2022-08-01T11:54:17.218Z,1.33
2022-08-01T11:57:01.961Z,1.10
2022-08-01T11:59:28.158Z,1.00
2022-08-01T12:02:04.282Z,1.20
2022-08-01T12:04:30.961Z,1.23
2022-08-01T12:06:57.158Z,1.60
2022-08-01T12:09:23.359Z,1.35
2022-08-01T12:11:49.567Z,1.20
2022-08-01T12:14:15.750Z,1.35
2022-08-01T12:16:41.910Z,1.58
2022-08-01T12:19:08.100Z,1.15
2022-08-01T12:21:38.011Z,1.80
2022-08-01T12:24:04.194Z,1.60
2022-08-01T12:26:32.271Z,1.40
2022-08-01T12:28:58.607Z,1.40
2022-08-01T12:31:24.811Z,1.50
2022-08-01T12:33:51.020Z,1.50
2022-08-01T12:36:17.180Z,1.45
2022-08-01T12:38:43.358Z,1.30
2022-08-01T12:41:09.537Z,1.25
2022-08-01T12:43:35.739Z,1.30
2022-08-01T12:46:01.905Z,1.25
2022-08-01T12:48:28.096Z,1.30
2022-08-01T12:50:54.414Z,1.20
2022-08-01T12:53:22.881Z,1.20
2022-08-01T13:24:02.074Z,1.40
2022-08-01T13:29:33.030Z,1.48
2022-08-01T13:59:50.690Z,1.65
2022-08-01T14:05:11.934Z,1.30
2022-08-01T14:07:56.317Z,1.45
2022-08-01T14:16:05.518Z,1.30
2022-08-01T14:35:46.458Z,1.38
2022-08-01T14:44:05.921Z,1.50
2022-08-01T14:52:25.093Z,1.40
2022-08-01T15:19:43.106Z,1.00
2022-08-01T15:22:09.610Z,1.20
2022-08-01T15:24:35.955Z,1.05
2022-08-01T15:27:02.172Z,1.00
2022-08-01T15:29:28.323Z,1.10
2022-08-01T15:31:54.482Z,1.25
2022-08-01T15:34:24.327Z,1.20
2022-08-01T15:36:50.523Z,2.10
2022-08-01T15:39:16.826Z,1.02
2022-08-01T15:41:43.038Z,1.00
2022-08-01T15:44:09.207Z,1.27
2022-08-01T15:46:35.404Z,1.20
2022-08-01T15:49:01.627Z,1.00
2022-08-01T15:51:27.897Z,1.30
2022-08-01T15:53:54.091Z,1.25
2022-08-01T15:56:20.271Z,1.10
2022-08-01T15:58:46.481Z,1.13
2022-08-01T16:01:12.669Z,1.20
2022-08-01T16:03:38.866Z,1.23
2022-08-01T16:06:05.026Z,1.20
2022-08-01T16:08:31.252Z,1.50
2022-08-01T16:10:57.409Z,1.33
2022-08-01T16:13:23.586Z,1.65
2022-08-01T16:15:49.746Z,1.30
2022-08-01T16:18:15.940Z,1.30
2022-08-01T16:20:45.439Z,1.30
2022-08-01T16:23:12.179Z,1.20
2022-08-01T16:25:38.343Z,1.40
2022-08-01T16:28:04.541Z,1.30
2022-08-01T16:30:30.975Z,1.23
2022-08-01T16:33:07.840Z,1.30
2022-08-01T16:35:44.457Z,1.52
2022-08-01T16:38:12.991Z,1.40
2022-08-01T16:40:47.444Z,1.42
2022-08-01T16:43:16.222Z,1.33
2022-08-01T16:45:42.770Z,1.30
2022-08-01T16:48:08.985Z,1.30
2022-08-01T16:50:38.585Z,1.35
2022-08-01T16:53:04.917Z,1.80
2022-08-01T16:55:49.670Z,1.45
2022-08-01T16:58:17.076Z,1.20
2022-08-01T17:03:52.350Z,1.30
2022-08-01T17:06:13.362Z,1.48
2022-08-01T17:08:46.502Z,1.23
2022-08-01T17:11:13.357Z,1.38
2022-08-01T17:13:39.670Z,1.20
2022-08-01T17:16:05.868Z,1.15
2022-08-01T17:18:32.019Z,1.30
2022-08-01T17:20:58.182Z,1.08
2022-08-01T17:23:24.388Z,1.40
2022-08-01T17:25:50.581Z,1.20
2022-08-01T17:28:16.767Z,1.30
2022-08-01T17:30:42.936Z,1.10
2022-08-01T17:33:09.105Z,1.20
2022-08-01T17:35:35.332Z,1.17
2022-08-01T17:38:01.530Z,1.30
2022-08-01T17:40:43.084Z,1.17
2022-08-01T17:43:09.258Z,1.00
2022-08-01T17:45:39.296Z,1.10
2022-08-01T17:48:16.667Z,1.13
2022-08-01T17:50:42.851Z,1.00
2022-08-01T17:53:09.050Z,1.30
2022-08-01T17:55:56.228Z,1.20
2022-08-01T17:58:48.998Z,1.58
2022-08-01T18:01:11.412Z,1.40
2022-08-01T18:03:41.417Z,1.30
2022-08-01T18:06:08.052Z,1.38
2022-08-01T18:08:34.264Z,1.05
2022-08-01T18:11:00.453Z,1.60
2022-08-01T18:13:26.631Z,1.50
2022-08-01T18:15:55.469Z,1.40
2022-08-01T18:18:33.363Z,1.10
2022-08-01T18:21:00.354Z,1.20
2022-08-01T18:23:26.510Z,1.50
2022-08-01T18:25:52.660Z,1.48
2022-08-01T18:28:30.665Z,1.40
2022-08-01T18:31:00.156Z,1.30
2022-08-01T18:33:26.400Z,1.40
2022-08-01T18:35:53.659Z,1.30
2022-08-01T18:38:20.344Z,1.25
2022-08-01T18:40:46.544Z,1.35
2022-08-01T18:43:12.737Z,1.80
2022-08-01T18:45:42.803Z,1.60
2022-08-01T18:48:09.378Z,2.03
2022-08-01T18:50:35.582Z,1.83
2022-08-01T18:53:01.826Z,1.77
2022-08-01T18:55:27.995Z,1.67
2022-08-01T18:57:54.177Z,1.77
2022-08-01T19:00:20.383Z,1.75
2022-08-01T19:02:46.555Z,2.30
2022-08-01T19:05:12.738Z,2.05
2022-08-01T19:08:05.417Z,1.50
2022-08-01T19:10:25.104Z,2.00
2022-08-01T19:12:51.310Z,2.10
2022-08-01T19:15:17.525Z,1.90
2022-08-01T19:17:43.684Z,2.28
2022-08-01T19:20:09.869Z,2.13
2022-08-01T19:22:36.062Z,2.15
2022-08-01T19:25:02.254Z,2.03
2022-08-01T19:27:28.451Z,1.90
2022-08-01T19:29:54.635Z,2.00
2022-08-01T19:32:20.812Z,2.22
2022-08-01T19:34:46.991Z,2.47
2022-08-01T19:37:13.196Z,2.85
2022-08-01T19:39:39.377Z,2.60
2022-08-01T19:42:05.550Z,2.78
2022-08-01T19:44:31.831Z,3.22
2022-08-01T19:46:58.029Z,2.75
2022-08-01T19:49:24.275Z,2.85
2022-08-01T19:51:50.499Z,3.10
2022-08-01T19:54:16.718Z,2.95
2022-08-01T19:56:45.893Z,2.83
2022-08-01T19:59:13.210Z,3.10
2022-08-01T20:01:39.403Z,2.63
2022-08-01T20:04:05.645Z,2.55
2022-08-01T20:06:31.852Z,2.53
2022-08-01T20:08:58.010Z,2.83
2022-08-01T20:11:24.187Z,3.05
2022-08-01T20:13:50.374Z,3.28
2022-08-01T20:16:16.584Z,2.53
2022-08-01T20:18:42.786Z,2.22
2022-08-01T20:21:08.993Z,2.45
2022-08-01T20:23:35.203Z,3.08
2022-08-01T20:26:01.455Z,2.53
2022-08-01T20:28:27.613Z,2.35
2022-08-01T20:30:53.794Z,2.78
2022-08-01T20:33:20.048Z,2.88
2022-08-01T20:35:53.459Z,2.50
2022-08-01T20:38:20.201Z,3.20
2022-08-01T20:40:49.222Z,3.50
2022-08-01T20:43:15.421Z,3.30
2022-08-01T20:45:41.600Z,3.08
2022-08-01T20:48:07.786Z,3.60
2022-08-01T20:50:54.041Z,3.42
2022-08-01T20:53:20.128Z,3.60
2022-08-01T20:55:46.288Z,3.08
2022-08-01T20:58:12.513Z,3.00
2022-08-01T21:00:38.712Z,3.30
2022-08-01T21:03:05.232Z,2.88
2022-08-01T21:05:31.405Z,3.13
2022-08-01T21:07:57.561Z,3.20
2022-08-01T21:10:23.739Z,3.05
2022-08-01T21:12:49.919Z,3.10
2022-08-01T21:15:16.127Z,3.00
2022-08-01T21:17:42.337Z,4.10
2022-08-01T21:20:11.390Z,3.53
2022-08-01T21:22:37.559Z,4.00
2022-08-01T21:25:03.732Z,3.60
2022-08-01T21:27:33.431Z,3.33
2022-08-01T21:30:00.243Z,3.90
2022-08-01T21:32:26.407Z,3.17
2022-08-01T21:34:55.612Z,3.35
2022-08-01T21:37:21.794Z,4.07
2022-08-01T21:39:47.951Z,3.80
2022-08-01T21:42:18.669Z,3.55
2022-08-01T21:44:45.429Z,4.13
2022-08-01T21:47:11.877Z,4.30
2022-08-01T21:49:38.372Z,4.10
2022-08-01T21:52:06.416Z,3.95
2022-08-01T21:54:35.086Z,4.45
2022-08-01T21:57:01.276Z,3.88
2022-08-01T21:59:27.429Z,4.07
2022-08-01T22:01:53.659Z,4.20
2022-08-01T22:04:19.867Z,4.43
2022-08-01T22:06:46.047Z,3.90
2022-08-01T22:09:12.230Z,4.22
2022-08-01T22:11:38.991Z,4.30
2022-08-01T22:14:25.198Z,4.18
2022-08-01T22:16:51.363Z,4.00
2022-08-01T22:19:35.126Z,4.35
2022-08-01T22:22:04.622Z,4.22
2022-08-01T22:24:49.893Z,4.15
2022-08-01T22:27:16.060Z,4.22
2022-08-01T22:29:42.242Z,4.43
2022-08-01T22:32:08.777Z,4.55
2022-08-01T22:34:35.168Z,3.90
2022-08-01T22:37:01.321Z,4.25
2022-08-01T22:39:32.875Z,3.97
2022-08-01T22:42:01.331Z,4.22
2022-08-01T22:44:30.061Z,4.50
2022-08-01T22:46:56.358Z,3.85
2022-08-01T22:49:22.571Z,4.70
2022-08-01T22:51:55.228Z,4.03
2022-08-01T22:54:22.127Z,4.32
2022-08-01T22:56:48.340Z,4.03
2022-08-01T22:59:14.512Z,4.28
2022-08-01T23:01:40.738Z,4.25
2022-08-01T23:04:13.810Z,4.00
2022-08-01T23:06:39.966Z,4.55
2022-08-01T23:09:06.145Z,4.20
2022-08-01T23:11:32.300Z,4.07
2022-08-01T23:13:58.479Z,4.10
2022-08-01T23:16:24.643Z,4.40
2022-08-01T23:18:50.795Z,4.43
2022-08-01T23:21:16.984Z,3.83
2022-08-01T23:23:43.137Z,4.18
2022-08-01T23:26:09.322Z,4.50
2022-08-01T23:28:35.495Z,4.15
2022-08-01T23:31:01.659Z,4.13
2022-08-01T23:33:27.839Z,4.10
2022-08-01T23:35:54.004Z,4.20
2022-08-01T23:38:20.144Z,3.88
2022-08-01T23:40:46.349Z,4.20
2022-08-01T23:43:14.602Z,4.47
2022-08-01T23:46:02.823Z,4.00
2022-08-01T23:48:29.995Z,4.30
2022-08-01T23:50:56.157Z,4.40
2022-08-01T23:53:23.754Z,3.80
2022-08-01T23:55:49.961Z,4.30
2022-08-01T23:58:16.180Z,4.18
